메인 페이지
METAR-TAF:

METAR-TAF

공항 :

은자메나, 차드

위도: 12-08N, 경도: 015-02E, 고도: 295m

현재 날씨관측

예보는 47분 전, 09:00시(UTC)에 발표되었습니다.
남남동5kt남남동풍과 풍을 오가는
온도 34°C
습도 50%
기압 1013 hPa
시정 10km 이상
1500m 미만 상공 구름 및 적란운 없음

METAR: FTTJ 150900Z 16005KT 160V270 CAVOK 34/22 Q1013 NOSIG

시각: 10:47 (09:47 UTC)

예보

예보는 4 시간 47분 전, 05:00시(UTC)에 발표되었습니다.
예보 대상 시간: 15일 06시부터 16일 12시까지 (UTC)
남남동6kt
시정 10km 이상
1500m 미만 상공 구름 및 적란운 없음
일시적
15일 12시부터 15일 18시까지 (UTC)
뇌우

TAF: FTTJ 150500Z 1506/1612 16006KT CAVOK TEMPO 1512/1518 TS

4,000개 이상의 공항 관측 자료 및 예보 (METAR 및 TAF 보고).

지도상에서 검색 가능한 기상관측소가 노란 점과 빨간 점으로 표시되어 있습니다.

기상관측소 명을 보려면 표시 위로 마우스를 이동하세요.

날씨 관측과 예보를 보려면 클릭하세요.

지도 변경 : 확대하려면 엑스 표시가 있는 녹색 버튼, 축소하려면 빼기 표시가 있는 녹색 버튼, 다음 페이지의 지도를 보려면 녹색 화살표를 클릭하세요.


METAR-TAF: